sensor_id;sensor_type;location;lat;lon;timestamp;pressure;altitude;pressure_sealevel;temperature;humidity
9746;BME280;4912;50.836;12.958;2023-10-31T00:01:41;95831.28;;;16.29;96.72
9746;BME280;4912;50.836;12.958;2023-10-31T00:04:12;95822.88;;;16.14;98.48
9746;BME280;4912;50.836;12.958;2023-10-31T00:06:42;95815.78;;;16.05;99.54
9746;BME280;4912;50.836;12.958;2023-10-31T00:09:13;95805.91;;;16.04;99.59
9746;BME280;4912;50.836;12.958;2023-10-31T00:11:50;95808.88;;;15.98;100.00
9746;BME280;4912;50.836;12.958;2023-10-31T00:14:21;95801.63;;;15.95;100.00
9746;BME280;4912;50.836;12.958;2023-10-31T00:16:57;95814.41;;;15.91;100.00
9746;BME280;4912;50.836;12.958;2023-10-31T00:19:28;95811.94;;;15.72;100.00
9746;BME280;4912;50.836;12.958;2023-10-31T00:21:58;95820.47;;;15.67;100.00
9746;BME280;4912;50.836;12.958;2023-10-31T00:24:29;95824.22;;;15.77;100.00
9746;BME280;4912;50.836;12.958;2023-10-31T00:27:03;95820.09;;;15.70;100.00
9746;BME280;4912;50.836;12.958;2023-10-31T00:29:34;95819.31;;;15.62;100.00
9746;BME280;4912;50.836;12.958;2023-10-31T00:32:04;95816.50;;;15.54;100.00
9746;BME280;4912;50.836;12.958;2023-10-31T00:34:36;95803.97;;;15.48;100.00
9746;BME280;4912;50.836;12.958;2023-10-31T00:37:06;95814.31;;;15.40;100.00
9746;BME280;4912;50.836;12.958;2023-10-31T00:39:37;95814.31;;;15.40;100.00
9746;BME280;4912;50.836;12.958;2023-10-31T00:42:10;95815.22;;;15.35;100.00
9746;BME280;4912;50.836;12.958;2023-10-31T00:44:41;95822.03;;;15.26;100.00
9746;BME280;4912;50.836;12.958;2023-10-31T00:47:12;95817.19;;;15.19;100.00
9746;BME280;4912;50.836;12.958;2023-10-31T00:49:43;95813.75;;;15.05;100.00
9746;BME280;4912;50.836;12.958;2023-10-31T00:52:14;95823.75;;;15.01;100.00
9746;BME280;4912;50.836;12.958;2023-10-31T00:54:44;95816.22;;;14.88;100.00
9746;BME280;4912;50.836;12.958;2023-10-31T00:57:18;95824.44;;;14.94;100.00
9746;BME280;4912;50.836;12.958;2023-10-31T00:59:49;95831.22;;;14.85;100.00
9746;BME280;4912;50.836;12.958;2023-10-31T01:02:19;95831.03;;;14.83;100.00
9746;BME280;4912;50.836;12.958;2023-10-31T01:04:50;95831.50;;;14.74;100.00
9746;BME280;4912;50.836;12.958;2023-10-31T01:07:21;95832.78;;;14.73;100.00
9746;BME280;4912;50.836;12.958;2023-10-31T01:09:52;95838.34;;;14.73;100.00
9746;BME280;4912;50.836;12.958;2023-10-31T01:12:25;95838.56;;;14.75;100.00
9746;BME280;4912;50.836;12.958;2023-10-31T01:14:56;95840.44;;;14.80;100.00
9746;BME280;4912;50.836;12.958;2023-10-31T01:17:26;95846.03;;;14.80;100.00
9746;BME280;4912;50.836;12.958;2023-10-31T01:19:57;95847.78;;;14.70;100.00
9746;BME280;4912;50.836;12.958;2023-10-31T01:22:28;95853.84;;;14.82;100.00
9746;BME280;4912;50.836;12.958;2023-10-31T01:24:59;95845.19;;;14.93;100.00
9746;BME280;4912;50.836;12.958;2023-10-31T01:27:32;95846.19;;;15.03;100.00
9746;BME280;4912;50.836;12.958;2023-10-31T01:30:04;95841.19;;;15.01;100.00
9746;BME280;4912;50.836;12.958;2023-10-31T01:32:36;95827.81;;;15.00;100.00
9746;BME280;4912;50.836;12.958;2023-10-31T01:35:07;95817.59;;;15.02;100.00
9746;BME280;4912;50.836;12.958;2023-10-31T01:37:38;95817.41;;;15.00;100.00
9746;BME280;4912;50.836;12.958;2023-10-31T01:40:12;95827.47;;;15.03;100.00
9746;BME280;4912;50.836;12.958;2023-10-31T01:42:45;95824.66;;;15.03;100.00
9746;BME280;4912;50.836;12.958;2023-10-31T01:45:16;95827.06;;;14.99;100.00
9746;BME280;4912;50.836;12.958;2023-10-31T01:47:48;95827.28;;;15.01;100.00
9746;BME280;4912;50.836;12.958;2023-10-31T01:50:20;95825.97;;;15.02;100.00
9746;BME280;4912;50.836;12.958;2023-10-31T01:52:50;95828.59;;;15.08;100.00
9746;BME280;4912;50.836;12.958;2023-10-31T01:55:21;95823.75;;;15.01;100.00
9746;BME280;4912;50.836;12.958;2023-10-31T01:57:58;95823.00;;;15.00;100.00
9746;BME280;4912;50.836;12.958;2023-10-31T02:00:29;95823.00;;;15.00;100.00
9746;BME280;4912;50.836;12.958;2023-10-31T02:03:02;95813.34;;;15.01;100.00
9746;BME280;4912;50.836;12.958;2023-10-31T02:05:32;95815.13;;;14.91;100.00
9746;BME280;4912;50.836;12.958;2023-10-31T02:08:03;95817.91;;;14.91;100.00
9746;BME280;4912;50.836;12.958;2023-10-31T02:10:35;95811.34;;;14.81;100.00
9746;BME280;4912;50.836;12.958;2023-10-31T02:13:16;95821.47;;;14.71;100.00
9746;BME280;4912;50.836;12.958;2023-10-31T02:15:48;95838.69;;;14.69;100.00
9746;BME280;4912;50.836;12.958;2023-10-31T02:18:18;95836.66;;;14.70;100.00
9746;BME280;4912;50.836;12.958;2023-10-31T02:20:49;95834.22;;;14.46;100.00
9746;BME280;4912;50.836;12.958;2023-10-31T02:23:22;95831.44;;;14.46;100.00
9746;BME280;4912;50.836;12.958;2023-10-31T02:25:53;95842.78;;;14.34;100.00
9746;BME280;4912;50.836;12.958;2023-10-31T02:28:26;95841.53;;;14.22;100.00
9746;BME280;4912;50.836;12.958;2023-10-31T02:30:58;95847.97;;;14.17;100.00
9746;BME280;4912;50.836;12.958;2023-10-31T02:33:28;95847.69;;;14.08;100.00
9746;BME280;4912;50.836;12.958;2023-10-31T02:35:59;95851.19;;;14.08;100.00
9746;BME280;4912;50.836;12.958;2023-10-31T02:38:32;95847.56;;;14.13;100.00
9746;BME280;4912;50.836;12.958;2023-10-31T02:41:03;95859.97;;;14.12;100.00
9746;BME280;4912;50.836;12.958;2023-10-31T02:43:34;95852.69;;;14.09;100.00
9746;BME280;4912;50.836;12.958;2023-10-31T02:46:05;95858.13;;;14.15;100.00
9746;BME280;4912;50.836;12.958;2023-10-31T02:48:37;95864.03;;;14.11;100.00
9746;BME280;4912;50.836;12.958;2023-10-31T02:51:09;95864.25;;;14.13;100.00
9746;BME280;4912;50.836;12.958;2023-10-31T02:53:42;95865.09;;;14.08;100.00
9746;BME280;4912;50.836;12.958;2023-10-31T02:56:13;95868.63;;;14.09;100.00
9746;BME280;4912;50.836;12.958;2023-10-31T02:58:43;95865.97;;;14.03;100.00
9746;BME280;4912;50.836;12.958;2023-10-31T03:01:14;95861.63;;;13.94;100.00
9746;BME280;4912;50.836;12.958;2023-10-31T03:06:28;95855.41;;;14.02;100.00
9746;BME280;4912;50.836;12.958;2023-10-31T03:09:01;95862.44;;;14.03;100.00
9746;BME280;4912;50.836;12.958;2023-10-31T03:11:33;95864.16;;;14.06;100.00
9746;BME280;4912;50.836;12.958;2023-10-31T03:14:04;95859.09;;;14.17;100.00
9746;BME280;4912;50.836;12.958;2023-10-31T03:16:34;95864.44;;;14.15;100.00
9746;BME280;4912;50.836;12.958;2023-10-31T03:19:06;95858.56;;;14.19;100.00
9746;BME280;4912;50.836;12.958;2023-10-31T03:21:38;95871.28;;;14.14;100.00
9746;BME280;4912;50.836;12.958;2023-10-31T03:24:11;95859.97;;;14.12;100.00
9746;BME280;4912;50.836;12.958;2023-10-31T03:26:42;95859.41;;;14.14;100.00
9746;BME280;4912;50.836;12.958;2023-10-31T03:29:12;95871.78;;;14.26;100.00
9746;BME280;4912;50.836;12.958;2023-10-31T03:31:43;95873.22;;;14.19;100.00
9746;BME280;4912;50.836;12.958;2023-10-31T03:34:14;95874.16;;;14.22;100.00
9746;BME280;4912;50.836;12.958;2023-10-31T03:36:45;95873.38;;;14.34;100.00
9746;BME280;4912;50.836;12.958;2023-10-31T03:39:18;95874.16;;;14.22;100.00
9746;BME280;4912;50.836;12.958;2023-10-31T03:41:49;95867.13;;;14.21;100.00
9746;BME280;4912;50.836;12.958;2023-10-31T03:44:22;95870.84;;;14.23;100.00
9746;BME280;4912;50.836;12.958;2023-10-31T03:46:53;95866.38;;;14.20;100.00
9746;BME280;4912;50.836;12.958;2023-10-31T03:49:23;95861.00;;;14.22;100.00
9746;BME280;4912;50.836;12.958;2023-10-31T03:51:54;95859.00;;;14.10;100.00
9746;BME280;4912;50.836;12.958;2023-10-31T03:54:27;95856.97;;;14.10;100.00
9746;BME280;4912;50.836;12.958;2023-10-31T03:56:58;95849.59;;;14.13;100.00
9746;BME280;4912;50.836;12.958;2023-10-31T03:59:29;95858.13;;;14.15;100.00
9746;BME280;4912;50.836;12.958;2023-10-31T04:01:59;95853.53;;;14.17;100.00
9746;BME280;4912;50.836;12.958;2023-10-31T04:04:30;95854.69;;;14.22;100.00
9746;BME280;4912;50.836;12.958;2023-10-31T04:07:01;95858.00;;;14.20;100.00
9746;BME280;4912;50.836;12.958;2023-10-31T04:09:34;95861.88;;;14.17;100.00
9746;BME280;4912;50.836;12.958;2023-10-31T04:12:06;95866.47;;;14.15;100.00
9746;BME280;4912;50.836;12.958;2023-10-31T04:14:38;95863.03;;;14.22;100.00
9746;BME280;4912;50.836;12.958;2023-10-31T04:17:08;95864.88;;;14.19;100.00
9746;BME280;4912;50.836;12.958;2023-10-31T04:19:39;95868.50;;;14.14;100.00
9746;BME280;4912;50.836;12.958;2023-10-31T04:22:10;95862.97;;;14.14;100.00
9746;BME280;4912;50.836;12.958;2023-10-31T04:24:44;95864.56;;;14.10;100.00
9746;BME280;4912;50.836;12.958;2023-10-31T04:27:14;95865.53;;;14.12;100.00
9746;BME280;4912;50.836;12.958;2023-10-31T04:29:45;95856.22;;;14.10;100.00
9746;BME280;4912;50.836;12.958;2023-10-31T04:32:18;95871.28;;;14.14;100.00
9746;BME280;4912;50.836;12.958;2023-10-31T04:34:49;95870.25;;;14.04;100.00
9746;BME280;4912;50.836;12.958;2023-10-31T04:37:20;95872.81;;;14.02;100.00
9746;BME280;4912;50.836;12.958;2023-10-31T04:39:53;95882.47;;;14.01;100.00
9746;BME280;4912;50.836;12.958;2023-10-31T04:42:24;95874.75;;;14.07;100.00
9746;BME280;4912;50.836;12.958;2023-10-31T04:44:55;95884.25;;;14.12;100.00
9746;BME280;4912;50.836;12.958;2023-10-31T04:47:26;95882.53;;;14.09;100.00
9746;BME280;4912;50.836;12.958;2023-10-31T04:49:57;95875.81;;;14.04;100.00
9746;BME280;4912;50.836;12.958;2023-10-31T04:52:28;95881.72;;;14.01;100.00
9746;BME280;4912;50.836;12.958;2023-10-31T04:55:01;95878.72;;;13.99;100.00
9746;BME280;4912;50.836;12.958;2023-10-31T04:57:32;95870.91;;;13.97;100.00
9746;BME280;4912;50.836;12.958;2023-10-31T05:00:04;95884.00;;;13.89;100.00
9746;BME280;4912;50.836;12.958;2023-10-31T05:02:36;95880.47;;;13.88;100.00
9746;BME280;4912;50.836;12.958;2023-10-31T05:05:07;95887.94;;;13.93;100.00
9746;BME280;4912;50.836;12.958;2023-10-31T05:07:38;95890.19;;;13.95;100.00
9746;BME280;4912;50.836;12.958;2023-10-31T05:10:12;95888.03;;;14.01;100.00
9746;BME280;4912;50.836;12.958;2023-10-31T05:12:43;95900.84;;;13.91;100.00
9746;BME280;4912;50.836;12.958;2023-10-31T05:15:13;95900.03;;;13.83;100.00
9746;BME280;4912;50.836;12.958;2023-10-31T05:17:44;95908.25;;;13.75;100.00
9746;BME280;4912;50.836;12.958;2023-10-31T05:20:15;95908.78;;;13.74;100.00
9746;BME280;4912;50.836;12.958;2023-10-31T05:22:46;95917.88;;;13.74;100.00
9746;BME280;4912;50.836;12.958;2023-10-31T05:25:19;95914.44;;;13.68;100.00
9746;BME280;4912;50.836;12.958;2023-10-31T05:27:50;95924.28;;;13.69;100.00
9746;BME280;4912;50.836;12.958;2023-10-31T05:30:21;95925.78;;;13.70;100.00
9746;BME280;4912;50.836;12.958;2023-10-31T05:32:52;95930.81;;;13.72;100.00
9746;BME280;4912;50.836;12.958;2023-10-31T05:35:23;95935.81;;;13.73;100.00
9746;BME280;4912;50.836;12.958;2023-10-31T05:37:54;95931.97;;;13.63;100.00
9746;BME280;4912;50.836;12.958;2023-10-31T05:40:27;95932.41;;;13.67;100.00
9746;BME280;4912;50.836;12.958;2023-10-31T05:42:59;95935.28;;;13.62;100.00
9746;BME280;4912;50.836;12.958;2023-10-31T05:45:30;95935.41;;;13.69;100.00
9746;BME280;4912;50.836;12.958;2023-10-31T05:48:01;95954.84;;;13.69;100.00
9746;BME280;4912;50.836;12.958;2023-10-31T05:50:32;95952.59;;;13.68;100.00
9746;BME280;4912;50.836;12.958;2023-10-31T05:53:03;95962.03;;;13.65;100.00
9746;BME280;4912;50.836;12.958;2023-10-31T05:55:38;95967.59;;;13.65;100.00
9746;BME280;4912;50.836;12.958;2023-10-31T05:58:09;95957.53;;;13.62;100.00
9746;BME280;4912;50.836;12.958;2023-10-31T06:00:39;95965.00;;;13.67;100.00
9746;BME280;4912;50.836;12.958;2023-10-31T06:03:10;95965.13;;;13.74;100.00
9746;BME280;4912;50.836;12.958;2023-10-31T06:05:41;95970.16;;;13.76;100.00
9746;BME280;4912;50.836;12.958;2023-10-31T06:08:13;95986.31;;;13.77;100.00
9746;BME280;4912;50.836;12.958;2023-10-31T06:10:46;96002.78;;;13.88;100.00
9746;BME280;4912;50.836;12.958;2023-10-31T06:13:17;96002.03;;;13.88;100.00
9746;BME280;4912;50.836;12.958;2023-10-31T06:15:47;96012.50;;;13.82;100.00
9746;BME280;4912;50.836;12.958;2023-10-31T06:18:18;96019.00;;;13.84;100.00
9746;BME280;4912;50.836;12.958;2023-10-31T06:20:49;96020.50;;;13.85;99.60
9746;BME280;4912;50.836;12.958;2023-10-31T06:23:19;96033.44;;;13.83;98.47
9746;BME280;4912;50.836;12.958;2023-10-31T06:25:53;96033.75;;;13.79;98.93
9746;BME280;4912;50.836;12.958;2023-10-31T06:28:23;96046.50;;;13.88;99.04
9746;BME280;4912;50.836;12.958;2023-10-31T06:30:54;96045.88;;;13.95;97.89
9746;BME280;4912;50.836;12.958;2023-10-31T06:33:25;96046.78;;;13.84;97.52
9746;BME280;4912;50.836;12.958;2023-10-31T06:35:55;96047.78;;;13.87;96.84
9746;BME280;4912;50.836;12.958;2023-10-31T06:38:26;96048.00;;;13.89;96.07
9746;BME280;4912;50.836;12.958;2023-10-31T06:40:59;96052.06;;;13.88;94.95
9746;BME280;4912;50.836;12.958;2023-10-31T06:43:33;96063.47;;;13.84;93.10
9746;BME280;4912;50.836;12.958;2023-10-31T06:46:04;96073.41;;;13.80;91.52
9746;BME280;4912;50.836;12.958;2023-10-31T06:48:35;96072.56;;;13.85;91.83
9746;BME280;4912;50.836;12.958;2023-10-31T06:51:06;96074.19;;;13.93;90.02
9746;BME280;4912;50.836;12.958;2023-10-31T06:53:44;96077.31;;;13.90;90.04
9746;BME280;4912;50.836;12.958;2023-10-31T06:56:17;96087.78;;;13.97;88.96
9746;BME280;4912;50.836;12.958;2023-10-31T06:58:48;96084.56;;;13.93;87.77
9746;BME280;4912;50.836;12.958;2023-10-31T07:01:19;96105.72;;;13.96;87.93
9746;BME280;4912;50.836;12.958;2023-10-31T07:03:50;96111.47;;;13.85;88.17
9746;BME280;4912;50.836;12.958;2023-10-31T07:06:20;96116.28;;;13.84;88.73
9746;BME280;4912;50.836;12.958;2023-10-31T07:08:51;96116.53;;;13.86;88.50
9746;BME280;4912;50.836;12.958;2023-10-31T07:11:24;96123.16;;;13.83;88.97
9746;BME280;4912;50.836;12.958;2023-10-31T07:13:57;96118.25;;;13.89;89.62
9746;BME280;4912;50.836;12.958;2023-10-31T07:16:29;96118.78;;;13.88;90.66
9746;BME280;4912;50.836;12.958;2023-10-31T07:19:03;96124.34;;;13.88;91.98
9746;BME280;4912;50.836;12.958;2023-10-31T07:21:33;96133.72;;;13.85;92.57
9746;BME280;4912;50.836;12.958;2023-10-31T07:24:05;96140.50;;;13.89;93.20
9746;BME280;4912;50.836;12.958;2023-10-31T07:26:39;96157.69;;;13.88;92.74
9746;BME280;4912;50.836;12.958;2023-10-31T07:29:13;96166.03;;;13.88;92.03
9746;BME280;4912;50.836;12.958;2023-10-31T07:31:44;96169.66;;;13.83;91.10
9746;BME280;4912;50.836;12.958;2023-10-31T07:34:15;96171.47;;;13.80;91.83
9746;BME280;4912;50.836;12.958;2023-10-31T07:36:48;96174.38;;;13.88;91.09
9746;BME280;4912;50.836;12.958;2023-10-31T07:39:18;96179.94;;;13.88;90.60
9746;BME280;4912;50.836;12.958;2023-10-31T07:41:53;96178.44;;;13.87;91.08
9746;BME280;4912;50.836;12.958;2023-10-31T07:44:26;96173.13;;;14.02;90.09
9746;BME280;4912;50.836;12.958;2023-10-31T07:46:57;96184.56;;;13.99;88.71
9746;BME280;4912;50.836;12.958;2023-10-31T07:49:27;96175.25;;;13.96;88.84
9746;BME280;4912;50.836;12.958;2023-10-31T07:51:58;96172.41;;;14.02;89.77
9746;BME280;4912;50.836;12.958;2023-10-31T07:54:30;96180.81;;;13.96;88.67
9746;BME280;4912;50.836;12.958;2023-10-31T07:57:04;96182.41;;;13.91;89.92
9746;BME280;4912;50.836;12.958;2023-10-31T07:59:35;96190.47;;;13.76;91.26
9746;BME280;4912;50.836;12.958;2023-10-31T08:02:15;96205.38;;;13.60;93.49
9746;BME280;4912;50.836;12.958;2023-10-31T08:04:45;96209.78;;;13.50;95.92
9746;BME280;4912;50.836;12.958;2023-10-31T08:07:16;96218.69;;;13.48;96.83
9746;BME280;4912;50.836;12.958;2023-10-31T08:09:47;96223.69;;;13.31;98.62
9746;BME280;4912;50.836;12.958;2023-10-31T08:12:20;96234.72;;;13.18;100.00
9746;BME280;4912;50.836;12.958;2023-10-31T08:14:51;96230.94;;;12.91;100.00
9746;BME280;4912;50.836;12.958;2023-10-31T08:17:21;96225.59;;;12.75;100.00
9746;BME280;4912;50.836;12.958;2023-10-31T08:19:52;96247.38;;;12.65;100.00
9746;BME280;4912;50.836;12.958;2023-10-31T08:22:24;96255.63;;;12.46;100.00
9746;BME280;4912;50.836;12.958;2023-10-31T08:24:57;96246.66;;;12.35;100.00
9746;BME280;4912;50.836;12.958;2023-10-31T08:27:31;96252.66;;;12.39;100.00
9746;BME280;4912;50.836;12.958;2023-10-31T08:30:03;96264.97;;;12.43;100.00
9746;BME280;4912;50.836;12.958;2023-10-31T08:32:35;96258.31;;;12.57;100.00
9746;BME280;4912;50.836;12.958;2023-10-31T08:35:08;96250.69;;;12.63;100.00
9746;BME280;4912;50.836;12.958;2023-10-31T08:37:39;96257.22;;;12.66;100.00
9746;BME280;4912;50.836;12.958;2023-10-31T08:40:13;96249.63;;;12.66;100.00
9746;BME280;4912;50.836;12.958;2023-10-31T08:42:48;96252.38;;;12.72;100.00
9746;BME280;4912;50.836;12.958;2023-10-31T08:45:20;96254.78;;;12.81;100.00
9746;BME280;4912;50.836;12.958;2023-10-31T08:47:52;96249.75;;;13.04;100.00
9746;BME280;4912;50.836;12.958;2023-10-31T08:50:22;96254.84;;;13.24;100.00
9746;BME280;4912;50.836;12.958;2023-10-31T08:52:53;96244.56;;;13.38;100.00
9746;BME280;4912;50.836;12.958;2023-10-31T08:55:26;96248.09;;;13.38;97.46
9746;BME280;4912;50.836;12.958;2023-10-31T08:57:59;96255.53;;;13.30;97.62
9746;BME280;4912;50.836;12.958;2023-10-31T09:00:30;96258.66;;;13.21;96.80
9746;BME280;4912;50.836;12.958;2023-10-31T09:03:00;96271.00;;;13.44;97.85
9746;BME280;4912;50.836;12.958;2023-10-31T09:05:33;96262.31;;;13.72;96.56
9746;BME280;4912;50.836;12.958;2023-10-31T09:08:06;96266.19;;;13.82;93.45
9746;BME280;4912;50.836;12.958;2023-10-31T09:10:37;96274.81;;;13.98;92.48
9746;BME280;4912;50.836;12.958;2023-10-31T09:13:15;96270.47;;;14.34;89.78
9746;BME280;4912;50.836;12.958;2023-10-31T09:15:51;96275.75;;;14.96;85.51
9746;BME280;4912;50.836;12.958;2023-10-31T09:18:38;96275.75;;;15.35;83.52
9746;BME280;4912;50.836;12.958;2023-10-31T09:21:10;96275.00;;;15.08;81.82
9746;BME280;4912;50.836;12.958;2023-10-31T09:23:44;96276.91;;;14.74;83.88
9746;BME280;4912;50.836;12.958;2023-10-31T09:26:17;96271.28;;;14.48;85.49
9746;BME280;4912;50.836;12.958;2023-10-31T09:28:50;96269.81;;;14.60;84.96
9746;BME280;4912;50.836;12.958;2023-10-31T09:31:21;96267.50;;;15.03;82.75
9746;BME280;4912;50.836;12.958;2023-10-31T09:33:52;96266.66;;;15.35;80.87
9746;BME280;4912;50.836;12.958;2023-10-31T09:36:23;96259.16;;;15.90;74.49
9746;BME280;4912;50.836;12.958;2023-10-31T09:38:53;96254.44;;;16.39;71.79
9746;BME280;4912;50.836;12.958;2023-10-31T09:41:26;96251.38;;;16.51;70.59
9746;BME280;4912;50.836;12.958;2023-10-31T09:44:03;96247.50;;;17.03;67.04
9746;BME280;4912;50.836;12.958;2023-10-31T09:46:35;96235.88;;;17.19;65.74
9746;BME280;4912;50.836;12.958;2023-10-31T09:49:08;96229.81;;;17.00;66.46
9746;BME280;4912;50.836;12.958;2023-10-31T09:51:44;96243.16;;;16.24;66.90
9746;BME280;4912;50.836;12.958;2023-10-31T09:54:17;96245.28;;;15.50;68.90
9746;BME280;4912;50.836;12.958;2023-10-31T09:56:52;96242.22;;;15.54;69.37
9746;BME280;4912;50.836;12.958;2023-10-31T09:59:28;96238.28;;;15.83;68.29
9746;BME280;4912;50.836;12.958;2023-10-31T10:02:05;96240.38;;;15.90;69.39
9746;BME280;4912;50.836;12.958;2023-10-31T10:04:36;96252.78;;;15.69;69.32
9746;BME280;4912;50.836;12.958;2023-10-31T10:07:08;96253.47;;;15.35;68.89
9746;BME280;4912;50.836;12.958;2023-10-31T10:09:42;96272.03;;;15.20;69.89
9746;BME280;4912;50.836;12.958;2023-10-31T10:12:16;96272.22;;;14.95;69.86
9746;BME280;4912;50.836;12.958;2023-10-31T10:14:53;96262.13;;;14.79;71.10
9746;BME280;4912;50.836;12.958;2023-10-31T10:17:27;96267.69;;;14.79;71.55
9746;BME280;4912;50.836;12.958;2023-10-31T10:20:08;96260.00;;;14.72;71.89
9746;BME280;4912;50.836;12.958;2023-10-31T10:22:45;96268.91;;;14.84;72.32
9746;BME280;4912;50.836;12.958;2023-10-31T10:25:17;96260.16;;;14.61;73.44
9746;BME280;4912;50.836;12.958;2023-10-31T10:28:00;96268.06;;;14.44;73.16
9746;BME280;4912;50.836;12.958;2023-10-31T10:30:36;96270.47;;;14.34;73.93
9746;BME280;4912;50.836;12.958;2023-10-31T10:33:08;96264.75;;;14.26;75.02
9746;BME280;4912;50.836;12.958;2023-10-31T10:35:42;96277.81;;;14.18;74.97
9746;BME280;4912;50.836;12.958;2023-10-31T10:38:15;96290.59;;;14.08;76.19
9746;BME280;4912;50.836;12.958;2023-10-31T10:40:51;96304.19;;;14.12;76.47
9746;BME280;4912;50.836;12.958;2023-10-31T10:43:37;96288.69;;;14.16;76.58
9746;BME280;4912;50.836;12.958;2023-10-31T10:46:17;96304.50;;;14.08;77.17
9746;BME280;4912;50.836;12.958;2023-10-31T10:48:55;96296.78;;;14.01;77.25
9746;BME280;4912;50.836;12.958;2023-10-31T10:51:37;96304.31;;;14.70;75.15
9746;BME280;4912;50.836;12.958;2023-10-31T10:54:18;96318.53;;;15.64;71.12
9746;BME280;4912;50.836;12.958;2023-10-31T10:56:54;96301.41;;;15.94;68.46
9746;BME280;4912;50.836;12.958;2023-10-31T10:59:40;96303.81;;;15.77;69.12
9746;BME280;4912;50.836;12.958;2023-10-31T11:02:24;96312.50;;;15.34;70.18
9746;BME280;4912;50.836;12.958;2023-10-31T11:04:59;96297.00;;;15.25;70.68
9746;BME280;4912;50.836;12.958;2023-10-31T11:07:32;96299.44;;;15.42;70.01
9746;BME280;4912;50.836;12.958;2023-10-31T11:10:05;96292.00;;;16.18;66.14
9746;BME280;4912;50.836;12.958;2023-10-31T11:12:37;96287.22;;;16.05;66.30
9746;BME280;4912;50.836;12.958;2023-10-31T11:15:11;96292.78;;;15.45;67.65
9746;BME280;4912;50.836;12.958;2023-10-31T11:17:47;96317.94;;;14.87;70.51
9746;BME280;4912;50.836;12.958;2023-10-31T11:20:19;96309.41;;;14.53;71.84
9746;BME280;4912;50.836;12.958;2023-10-31T11:22:55;96301.22;;;14.87;71.13
9746;BME280;4912;50.836;12.958;2023-10-31T11:25:32;96310.13;;;14.85;71.27
9746;BME280;4912;50.836;12.958;2023-10-31T11:28:14;96301.00;;;14.85;71.67
9746;BME280;4912;50.836;12.958;2023-10-31T11:30:49;96314.19;;;14.84;71.37
9746;BME280;4912;50.836;12.958;2023-10-31T11:33:29;96315.75;;;15.25;69.45
9746;BME280;4912;50.836;12.958;2023-10-31T11:36:02;96318.19;;;15.02;70.92
9746;BME280;4912;50.836;12.958;2023-10-31T11:38:36;96329.59;;;14.72;71.90
9746;BME280;4912;50.836;12.958;2023-10-31T11:41:08;96327.38;;;14.52;73.38
9746;BME280;4912;50.836;12.958;2023-10-31T11:43:52;96332.28;;;14.27;74.80
9746;BME280;4912;50.836;12.958;2023-10-31T11:46:25;96347.47;;;14.26;75.76
9746;BME280;4912;50.836;12.958;2023-10-31T11:49:01;96355.31;;;14.46;75.75
9746;BME280;4912;50.836;12.958;2023-10-31T11:51:33;96348.19;;;14.64;75.02
9746;BME280;4912;50.836;12.958;2023-10-31T11:54:07;96357.53;;;14.80;73.67
9746;BME280;4912;50.836;12.958;2023-10-31T11:56:39;96348.06;;;15.14;72.35
9746;BME280;4912;50.836;12.958;2023-10-31T11:59:10;96351.59;;;16.07;67.96
9746;BME280;4912;50.836;12.958;2023-10-31T12:01:48;96354.66;;;16.51;66.52
9746;BME280;4912;50.836;12.958;2023-10-31T12:04:25;96350.47;;;15.89;66.67
9746;BME280;4912;50.836;12.958;2023-10-31T12:07:02;96350.47;;;15.37;69.13
9746;BME280;4912;50.836;12.958;2023-10-31T12:09:33;96356.22;;;15.12;70.47
9746;BME280;4912;50.836;12.958;2023-10-31T12:12:24;96371.16;;;14.83;71.26
9746;BME280;4912;50.836;12.958;2023-10-31T12:15:05;96370.41;;;14.51;72.36
9746;BME280;4912;50.836;12.958;2023-10-31T12:17:39;96368.53;;;14.21;72.74
9746;BME280;4912;50.836;12.958;2023-10-31T12:20:16;96348.47;;;14.10;73.25
9746;BME280;4912;50.836;12.958;2023-10-31T12:23:01;96344.94;;;14.09;74.53
9746;BME280;4912;50.836;12.958;2023-10-31T12:25:45;96338.16;;;14.05;75.07
9746;BME280;4912;50.836;12.958;2023-10-31T12:28:18;96332.09;;;14.06;75.81
9746;BME280;4912;50.836;12.958;2023-10-31T12:30:51;96328.84;;;14.02;76.49
9746;BME280;4912;50.836;12.958;2023-10-31T12:33:26;96326.00;;;14.08;75.87
9746;BME280;4912;50.836;12.958;2023-10-31T12:36:06;96321.03;;;14.19;75.25
9746;BME280;4912;50.836;12.958;2023-10-31T12:38:41;96332.28;;;14.08;76.40
9746;BME280;4912;50.836;12.958;2023-10-31T12:41:12;96325.53;;;14.04;76.26
9746;BME280;4912;50.836;12.958;2023-10-31T12:43:46;96335.06;;;14.08;76.46
9746;BME280;4912;50.836;12.958;2023-10-31T12:46:28;96352.50;;;14.27;75.19
9746;BME280;4912;50.836;12.958;2023-10-31T12:48:59;96369.00;;;14.07;75.22
9746;BME280;4912;50.836;12.958;2023-10-31T12:51:32;96358.75;;;13.96;76.37
9746;BME280;4912;50.836;12.958;2023-10-31T12:54:06;96357.03;;;13.93;76.66
9746;BME280;4912;50.836;12.958;2023-10-31T12:56:38;96367.41;;;13.92;76.99
9746;BME280;4912;50.836;12.958;2023-10-31T12:59:10;96373.41;;;13.97;76.82
9746;BME280;4912;50.836;12.958;2023-10-31T13:01:43;96378.22;;;13.96;76.29
9746;BME280;4912;50.836;12.958;2023-10-31T13:04:25;96374.91;;;13.98;76.22
9746;BME280;4912;50.836;12.958;2023-10-31T13:07:03;96382.56;;;13.91;76.36
9746;BME280;4912;50.836;12.958;2023-10-31T13:09:43;96382.66;;;13.86;76.66
9746;BME280;4912;50.836;12.958;2023-10-31T13:12:15;96396.00;;;13.69;77.20
9746;BME280;4912;50.836;12.958;2023-10-31T13:14:45;96394.09;;;13.58;77.28
9746;BME280;4912;50.836;12.958;2023-10-31T13:17:16;96395.19;;;13.49;77.61
9746;BME280;4912;50.836;12.958;2023-10-31T13:19:49;96399.84;;;13.66;77.79
9746;BME280;4912;50.836;12.958;2023-10-31T13:22:23;96406.38;;;13.68;77.28
9746;BME280;4912;50.836;12.958;2023-10-31T13:24:53;96416.22;;;13.69;77.30
9746;BME280;4912;50.836;12.958;2023-10-31T13:27:24;96421.25;;;13.71;77.23
9746;BME280;4912;50.836;12.958;2023-10-31T13:29:55;96420.69;;;13.78;77.17
9746;BME280;4912;50.836;12.958;2023-10-31T13:32:26;96448.63;;;13.85;77.12
9746;BME280;4912;50.836;12.958;2023-10-31T13:34:57;96442.22;;;13.72;78.10
9746;BME280;4912;50.836;12.958;2023-10-31T13:37:31;96459.69;;;13.67;78.16